createdAt,value
2023-07-19T00:01:50.219Z,19.05
2023-07-19T00:04:18.297Z,19.08
2023-07-19T00:06:46.527Z,19.10
2023-07-19T00:09:14.899Z,19.15
2023-07-19T00:11:43.664Z,19.15
2023-07-19T00:14:11.902Z,19.17
2023-07-19T00:16:40.178Z,19.16
2023-07-19T00:19:20.351Z,19.13
2023-07-19T00:21:50.642Z,19.22
2023-07-19T00:24:18.886Z,19.13
2023-07-19T00:26:47.868Z,19.11
2023-07-19T00:29:16.180Z,19.06
2023-07-19T00:31:44.974Z,18.99
2023-07-19T00:34:16.070Z,18.93
2023-07-19T00:36:44.419Z,18.85
2023-07-19T00:39:13.233Z,18.79
2023-07-19T00:41:41.878Z,18.81
2023-07-19T00:44:10.400Z,18.84
2023-07-19T00:46:40.131Z,18.84
2023-07-19T00:49:09.437Z,18.81
2023-07-19T00:51:39.641Z,18.77
2023-07-19T00:54:09.861Z,18.76
2023-07-19T00:56:38.919Z,18.65
2023-07-19T00:59:07.207Z,18.57
2023-07-19T01:01:35.650Z,18.54
2023-07-19T01:04:07.572Z,18.48
2023-07-19T01:06:35.917Z,18.52
2023-07-19T01:09:06.238Z,18.48
2023-07-19T01:11:34.557Z,18.43
2023-07-19T01:14:02.832Z,18.35
2023-07-19T01:16:32.433Z,18.32
2023-07-19T01:19:01.513Z,18.30
2023-07-19T01:21:30.708Z,18.26
2023-07-19T01:24:00.434Z,18.22
2023-07-19T01:26:28.595Z,18.20
2023-07-19T01:28:59.325Z,18.15
2023-07-19T01:31:27.702Z,18.16
2023-07-19T01:33:56.433Z,18.13
2023-07-19T01:36:27.457Z,18.05
2023-07-19T01:38:55.986Z,17.97
2023-07-19T01:41:25.736Z,17.88
2023-07-19T01:43:55.267Z,17.80
2023-07-19T01:46:23.627Z,17.70
2023-07-19T01:48:51.986Z,17.61
2023-07-19T01:51:20.593Z,17.54
2023-07-19T01:53:48.973Z,17.50
2023-07-19T01:56:17.681Z,17.46
2023-07-19T01:58:47.310Z,17.45
2023-07-19T02:01:17.526Z,17.57
2023-07-19T02:03:45.855Z,17.52
2023-07-19T02:06:14.973Z,17.55
2023-07-19T02:08:43.340Z,17.59
2023-07-19T02:11:11.833Z,17.51
2023-07-19T02:13:40.108Z,17.48
2023-07-19T02:16:10.585Z,17.52
2023-07-19T02:18:39.382Z,17.43
2023-07-19T02:21:07.673Z,17.35
2023-07-19T02:23:35.917Z,17.28
2023-07-19T02:26:04.228Z,17.24
2023-07-19T02:28:32.532Z,17.25
2023-07-19T02:31:01.021Z,17.16
2023-07-19T02:33:33.280Z,17.13
2023-07-19T02:36:01.717Z,17.22
2023-07-19T02:38:30.099Z,17.18
2023-07-19T02:41:02.118Z,17.14
2023-07-19T02:43:31.278Z,17.09
2023-07-19T02:45:59.455Z,17.04
2023-07-19T02:48:27.716Z,16.98
2023-07-19T02:50:58.513Z,16.90
2023-07-19T02:53:26.973Z,16.82
2023-07-19T02:55:55.211Z,16.77
2023-07-19T02:58:23.766Z,16.77
2023-07-19T03:00:55.066Z,16.73
2023-07-19T03:03:24.055Z,16.70
2023-07-19T03:05:53.547Z,16.66
2023-07-19T03:08:23.241Z,16.72
2023-07-19T03:10:53.906Z,16.69
2023-07-19T03:13:22.287Z,16.79
2023-07-19T03:15:51.058Z,16.75
2023-07-19T03:18:19.338Z,16.68
2023-07-19T03:20:47.573Z,16.70
2023-07-19T03:23:15.736Z,16.66
2023-07-19T03:25:45.950Z,16.63
2023-07-19T03:28:14.222Z,16.61
2023-07-19T03:30:42.917Z,16.58
2023-07-19T03:33:11.626Z,16.54
2023-07-19T03:35:40.119Z,16.53
2023-07-19T03:38:08.358Z,16.53
2023-07-19T03:40:36.859Z,16.50
2023-07-19T03:43:06.576Z,16.44
2023-07-19T03:45:34.832Z,16.39
2023-07-19T03:48:03.206Z,16.34
2023-07-19T03:50:34.082Z,16.33
2023-07-19T03:53:05.876Z,16.34
2023-07-19T03:55:34.791Z,16.30
2023-07-19T03:58:06.517Z,16.30
2023-07-19T04:00:34.718Z,16.33
2023-07-19T04:03:03.050Z,16.37
2023-07-19T04:05:31.558Z,16.49
2023-07-19T04:08:02.413Z,16.50
2023-07-19T04:10:32.445Z,16.49
2023-07-19T04:13:00.741Z,16.48
2023-07-19T04:15:30.356Z,16.52
2023-07-19T04:17:59.651Z,16.53
2023-07-19T04:20:28.891Z,16.56
2023-07-19T04:22:57.330Z,16.61
2023-07-19T04:25:26.531Z,16.60
2023-07-19T04:27:55.669Z,16.58
2023-07-19T04:30:24.291Z,16.59
2023-07-19T04:32:56.577Z,16.64
2023-07-19T04:35:24.947Z,16.74
2023-07-19T04:37:54.884Z,16.86
2023-07-19T04:40:23.608Z,16.96
2023-07-19T04:42:51.974Z,17.12
2023-07-19T04:45:20.203Z,17.32
2023-07-19T04:47:49.583Z,17.49
2023-07-19T04:50:19.623Z,17.66
2023-07-19T04:52:47.957Z,17.78
2023-07-19T04:55:16.217Z,17.88
2023-07-19T04:57:45.984Z,17.95
2023-07-19T05:00:19.305Z,18.02
2023-07-19T05:02:48.080Z,18.08
2023-07-19T05:05:16.590Z,18.14
2023-07-19T05:07:47.860Z,18.22
2023-07-19T05:10:18.075Z,18.36
2023-07-19T05:12:46.414Z,18.56
2023-07-19T05:15:15.162Z,18.65
2023-07-19T05:17:43.544Z,18.79
2023-07-19T05:20:13.440Z,18.91
2023-07-19T05:22:41.644Z,19.04
2023-07-19T05:25:11.585Z,19.07
2023-07-19T05:27:40.317Z,19.10
2023-07-19T05:30:12.021Z,19.13
2023-07-19T05:32:40.185Z,19.15
2023-07-19T05:35:09.054Z,19.30
2023-07-19T05:37:37.230Z,19.42
2023-07-19T05:40:07.054Z,19.34
2023-07-19T05:42:36.774Z,19.43
2023-07-19T05:45:06.503Z,19.38
2023-07-19T05:47:35.080Z,19.47
2023-07-19T05:50:04.352Z,19.61
2023-07-19T05:52:32.922Z,19.70
2023-07-19T05:55:04.682Z,19.82
2023-07-19T05:57:36.140Z,19.91
2023-07-19T06:00:19.443Z,19.94
2023-07-19T06:02:54.902Z,19.98
2023-07-19T06:05:25.866Z,20.12
2023-07-19T06:07:54.680Z,20.13
2023-07-19T06:10:23.538Z,20.09
2023-07-19T06:12:53.560Z,20.18
2023-07-19T06:15:21.863Z,20.33
2023-07-19T06:17:50.132Z,20.39
2023-07-19T06:20:18.504Z,20.56
2023-07-19T06:22:47.116Z,20.74
2023-07-19T06:25:16.555Z,21.00
2023-07-19T06:27:44.922Z,21.04
2023-07-19T06:30:15.190Z,21.27
2023-07-19T06:32:43.525Z,21.28
2023-07-19T06:35:12.260Z,21.36
2023-07-19T06:37:40.473Z,21.68
2023-07-19T06:40:09.734Z,22.05
2023-07-19T06:42:38.133Z,22.32
2023-07-19T06:45:07.542Z,22.56
2023-07-19T06:47:37.227Z,22.58
2023-07-19T06:50:06.314Z,23.12
2023-07-19T06:52:35.100Z,23.58
2023-07-19T06:55:03.294Z,23.50
2023-07-19T06:57:31.860Z,23.69
2023-07-19T07:00:04.452Z,23.96
2023-07-19T07:02:32.912Z,24.24
2023-07-19T07:05:02.757Z,24.35
2023-07-19T07:07:31.106Z,24.66
2023-07-19T07:10:04.760Z,24.59
2023-07-19T07:12:33.293Z,25.06
2023-07-19T07:15:02.748Z,25.38
2023-07-19T07:17:30.820Z,25.23
2023-07-19T07:20:00.241Z,25.42
2023-07-19T07:22:30.454Z,25.46
2023-07-19T07:24:58.935Z,26.07
2023-07-19T07:27:28.271Z,25.53
2023-07-19T07:29:56.350Z,25.16
2023-07-19T07:32:24.575Z,25.74
2023-07-19T07:34:52.847Z,25.84
2023-07-19T07:37:21.105Z,25.53
2023-07-19T07:39:50.761Z,26.05
2023-07-19T07:42:19.054Z,25.87
2023-07-19T07:44:48.633Z,26.48
2023-07-19T07:47:17.071Z,26.91
2023-07-19T07:49:47.739Z,26.82
2023-07-19T07:52:17.479Z,27.45
2023-07-19T07:54:45.889Z,28.07
2023-07-19T07:57:15.982Z,28.00
2023-07-19T07:59:44.443Z,28.01
2023-07-19T08:02:12.868Z,28.70
2023-07-19T08:04:41.497Z,28.06
2023-07-19T08:07:09.677Z,28.89
2023-07-19T08:09:37.950Z,28.72
2023-07-19T08:12:07.699Z,28.50
2023-07-19T08:14:37.841Z,28.77
2023-07-19T08:17:06.464Z,28.48
2023-07-19T08:19:35.738Z,28.99
2023-07-19T08:22:05.893Z,29.26
2023-07-19T08:24:35.217Z,28.84
2023-07-19T08:27:03.945Z,27.83
2023-07-19T08:29:32.155Z,28.29
2023-07-19T08:32:02.065Z,29.35
2023-07-19T08:34:30.513Z,29.85
2023-07-19T08:36:58.933Z,29.95
2023-07-19T08:39:28.359Z,30.13
2023-07-19T08:41:56.585Z,30.82
2023-07-19T08:44:24.954Z,31.29
2023-07-19T08:46:54.191Z,31.16
2023-07-19T08:49:24.712Z,30.78
2023-07-19T08:51:53.095Z,29.90
2023-07-19T08:54:21.562Z,30.05
2023-07-19T08:56:50.085Z,30.95
2023-07-19T08:59:18.318Z,30.14
2023-07-19T09:01:46.982Z,30.64
2023-07-19T09:04:15.672Z,31.24
2023-07-19T09:06:48.019Z,31.46
2023-07-19T09:09:18.952Z,31.26
2023-07-19T09:11:48.348Z,30.63
2023-07-19T09:14:16.635Z,31.74
2023-07-19T09:16:47.548Z,31.71
2023-07-19T09:19:15.748Z,31.77
2023-07-19T09:21:46.260Z,32.39
2023-07-19T09:24:15.752Z,31.69
2023-07-19T09:26:50.814Z,30.75
2023-07-19T09:29:19.574Z,31.68
2023-07-19T09:31:55.565Z,30.73
2023-07-19T09:34:24.891Z,31.56
2023-07-19T09:36:57.353Z,31.88
2023-07-19T09:39:26.024Z,33.20
2023-07-19T09:41:55.493Z,32.21
2023-07-19T09:44:24.034Z,32.92
2023-07-19T09:46:52.320Z,32.76
2023-07-19T09:49:20.868Z,33.23
2023-07-19T09:51:50.099Z,33.89
2023-07-19T09:54:19.641Z,34.04
2023-07-19T09:56:47.988Z,33.07
2023-07-19T09:59:22.384Z,32.75
2023-07-19T10:01:52.307Z,31.90
2023-07-19T10:04:25.329Z,33.32
2023-07-19T10:07:04.889Z,33.74
2023-07-19T10:09:40.506Z,33.49
2023-07-19T10:12:11.370Z,32.75
2023-07-19T10:14:39.592Z,32.22
2023-07-19T10:17:08.695Z,30.54
2023-07-19T10:19:37.665Z,30.04
2023-07-19T10:22:07.171Z,31.22
2023-07-19T10:24:38.526Z,32.46
2023-07-19T10:27:08.952Z,32.92
2023-07-19T10:29:45.457Z,32.82
2023-07-19T10:32:13.928Z,32.87
2023-07-19T10:34:45.898Z,31.96
2023-07-19T10:37:14.729Z,31.08
2023-07-19T10:39:44.351Z,30.38
2023-07-19T10:42:12.769Z,30.35
2023-07-19T10:44:41.836Z,30.09
2023-07-19T10:47:09.993Z,29.71
2023-07-19T10:49:38.623Z,29.75
2023-07-19T10:52:07.673Z,30.35
2023-07-19T10:54:46.140Z,30.62
2023-07-19T10:57:24.097Z,31.68
2023-07-19T10:59:52.812Z,31.18
2023-07-19T11:02:21.260Z,31.03
2023-07-19T11:04:50.757Z,30.76
2023-07-19T11:07:19.607Z,29.98
2023-07-19T11:09:51.205Z,29.33
2023-07-19T11:12:21.032Z,29.58
2023-07-19T11:14:59.388Z,29.58
2023-07-19T11:17:28.873Z,29.14
2023-07-19T11:19:57.315Z,29.05
2023-07-19T11:22:27.277Z,29.72
2023-07-19T11:24:57.830Z,29.98
2023-07-19T11:27:37.858Z,30.47
2023-07-19T11:30:07.923Z,30.45
2023-07-19T11:32:36.467Z,30.83
2023-07-19T11:35:04.957Z,31.40
2023-07-19T11:37:35.141Z,31.67
2023-07-19T11:40:06.713Z,32.12
2023-07-19T11:42:46.864Z,32.13
2023-07-19T11:45:17.140Z,31.66
2023-07-19T11:47:46.741Z,31.55
2023-07-19T11:50:15.633Z,32.21
2023-07-19T11:52:49.661Z,31.79
2023-07-19T11:55:18.720Z,31.11
2023-07-19T11:57:54.234Z,31.03
2023-07-19T12:00:24.637Z,30.72
2023-07-19T12:02:54.003Z,30.46
2023-07-19T12:05:23.566Z,30.20
2023-07-19T12:07:52.970Z,30.14
2023-07-19T12:10:23.157Z,30.97
2023-07-19T12:12:54.330Z,31.09
2023-07-19T12:15:22.688Z,31.18
2023-07-19T12:17:52.173Z,30.89
2023-07-19T12:20:20.506Z,30.57
2023-07-19T12:22:50.395Z,30.38
2023-07-19T12:25:19.731Z,29.63
2023-07-19T12:27:53.447Z,29.52
2023-07-19T12:30:23.528Z,28.78
2023-07-19T12:32:52.068Z,28.64
2023-07-19T12:35:21.745Z,28.83
2023-07-19T12:37:49.984Z,28.90
2023-07-19T12:40:18.422Z,28.97
2023-07-19T12:42:46.632Z,29.06
2023-07-19T12:45:15.461Z,28.70
2023-07-19T12:47:45.465Z,28.50
2023-07-19T12:50:13.908Z,28.16
2023-07-19T12:52:52.362Z,28.04
2023-07-19T12:55:21.129Z,28.16
2023-07-19T12:57:49.669Z,28.66
2023-07-19T13:00:19.679Z,29.51
2023-07-19T13:02:50.119Z,30.69
2023-07-19T13:05:19.103Z,31.48
2023-07-19T13:07:47.385Z,31.29
2023-07-19T13:10:15.872Z,32.06
2023-07-19T13:12:45.527Z,32.25
2023-07-19T13:15:14.119Z,33.08
2023-07-19T13:17:43.612Z,32.77
2023-07-19T13:20:14.015Z,32.21
2023-07-19T13:22:47.748Z,31.97
2023-07-19T13:25:16.626Z,31.79
2023-07-19T13:27:44.853Z,32.08
2023-07-19T13:30:14.165Z,32.36
2023-07-19T13:32:43.074Z,31.61
2023-07-19T13:35:15.051Z,30.97
2023-07-19T13:40:33.730Z,29.14
2023-07-19T13:43:02.071Z,27.95
2023-07-19T13:45:30.361Z,26.46
2023-07-19T13:47:58.586Z,25.65
2023-07-19T13:50:26.843Z,25.51
2023-07-19T13:52:55.292Z,25.43
2023-07-19T13:55:24.887Z,25.70
2023-07-19T13:57:53.217Z,25.69
2023-07-19T14:00:21.570Z,26.27
2023-07-19T14:02:49.892Z,26.54
2023-07-19T14:05:18.289Z,27.07
2023-07-19T14:07:46.597Z,27.40
2023-07-19T14:10:14.995Z,27.32
2023-07-19T14:12:45.037Z,27.44
2023-07-19T14:15:13.617Z,27.18
2023-07-19T14:17:42.441Z,27.32
2023-07-19T14:20:12.223Z,27.08
2023-07-19T14:22:40.833Z,27.15
2023-07-19T14:25:09.730Z,27.55
2023-07-19T14:27:39.274Z,27.74
2023-07-19T14:30:11.003Z,28.01
2023-07-19T14:32:39.344Z,29.24
2023-07-19T14:35:08.579Z,30.14
2023-07-19T14:37:37.204Z,30.06
2023-07-19T14:40:08.216Z,29.41
2023-07-19T14:42:36.463Z,28.79
2023-07-19T14:45:05.268Z,28.14
2023-07-19T14:47:36.707Z,27.49
2023-07-19T14:50:05.817Z,27.39
2023-07-19T14:52:42.721Z,28.14
2023-07-19T14:55:11.300Z,28.62
2023-07-19T14:57:39.605Z,28.59
2023-07-19T15:00:13.852Z,28.84
2023-07-19T15:05:27.139Z,28.50
2023-07-19T15:07:55.999Z,28.48
2023-07-19T15:10:25.429Z,28.63
2023-07-19T15:12:55.074Z,29.27
2023-07-19T15:15:23.641Z,29.26
2023-07-19T15:17:55.305Z,29.45
2023-07-19T15:20:23.758Z,29.01
2023-07-19T15:22:55.135Z,28.93
2023-07-19T15:25:24.369Z,29.11
2023-07-19T15:27:52.732Z,28.73
2023-07-19T15:30:21.277Z,29.24
2023-07-19T15:32:49.925Z,29.72
2023-07-19T15:35:19.767Z,30.16
2023-07-19T15:37:48.449Z,29.82
2023-07-19T15:40:17.248Z,29.34
2023-07-19T15:42:45.771Z,29.30
2023-07-19T15:45:17.027Z,29.76
2023-07-19T15:47:45.624Z,29.67
2023-07-19T15:50:16.505Z,29.51
2023-07-19T15:52:47.465Z,29.73
2023-07-19T15:55:16.877Z,29.44
2023-07-19T15:57:45.234Z,28.64
2023-07-19T16:00:15.200Z,28.17
2023-07-19T16:02:43.505Z,27.88
2023-07-19T16:05:11.814Z,27.69
2023-07-19T16:07:40.050Z,27.81
2023-07-19T16:10:10.346Z,27.57
2023-07-19T16:12:39.638Z,27.37
2023-07-19T16:15:08.498Z,27.07
2023-07-19T16:17:36.968Z,27.12
2023-07-19T16:20:07.636Z,26.87
2023-07-19T16:22:36.477Z,26.88
2023-07-19T16:25:05.536Z,26.63
2023-07-19T16:27:35.092Z,26.40
2023-07-19T16:30:03.890Z,26.21
2023-07-19T16:32:32.472Z,26.24
2023-07-19T16:35:00.866Z,25.91
2023-07-19T16:37:29.113Z,25.95
2023-07-19T16:39:57.651Z,25.88
2023-07-19T16:42:25.952Z,26.03
2023-07-19T16:44:55.576Z,26.04
2023-07-19T16:47:23.866Z,26.00
2023-07-19T16:49:53.486Z,26.03
2023-07-19T16:52:22.130Z,25.89
2023-07-19T16:54:50.748Z,26.18
2023-07-19T16:57:19.021Z,26.57
2023-07-19T16:59:49.187Z,26.68
2023-07-19T17:02:21.921Z,26.72
2023-07-19T17:04:51.494Z,26.77
2023-07-19T17:07:20.056Z,26.84
2023-07-19T17:09:48.251Z,26.62
2023-07-19T17:12:16.762Z,26.32
2023-07-19T17:14:45.976Z,26.25
2023-07-19T17:17:14.446Z,26.24
2023-07-19T17:19:44.193Z,26.19
2023-07-19T17:22:12.642Z,26.12
2023-07-19T17:24:41.396Z,26.21
2023-07-19T17:27:09.707Z,26.01
2023-07-19T17:29:38.202Z,26.01
2023-07-19T17:32:07.633Z,25.95
2023-07-19T17:34:35.123Z,25.75
2023-07-19T17:37:04.666Z,25.59
2023-07-19T17:39:32.964Z,25.43
2023-07-19T17:42:01.521Z,25.34
2023-07-19T17:44:29.752Z,25.17
2023-07-19T17:46:58.093Z,25.12
2023-07-19T17:49:26.443Z,25.09
2023-07-19T17:52:06.219Z,24.95
2023-07-19T17:54:36.052Z,25.12
2023-07-19T17:57:09.275Z,24.93
2023-07-19T17:59:42.882Z,24.87
2023-07-19T18:02:14.532Z,24.91
2023-07-19T18:04:49.025Z,24.88
2023-07-19T18:07:24.377Z,24.77
2023-07-19T18:09:53.941Z,24.83
2023-07-19T18:12:22.669Z,24.95
2023-07-19T18:14:53.904Z,25.01
2023-07-19T18:17:22.439Z,25.14
2023-07-19T18:19:50.801Z,25.27
2023-07-19T18:22:23.969Z,25.33
2023-07-19T18:25:00.244Z,25.36
2023-07-19T18:27:39.487Z,25.50
2023-07-19T18:30:09.505Z,25.34
2023-07-19T18:32:37.764Z,25.29
2023-07-19T18:35:07.614Z,25.08
2023-07-19T18:37:51.048Z,25.16
2023-07-19T18:40:22.922Z,25.02
2023-07-19T18:42:57.313Z,24.85
2023-07-19T18:45:30.480Z,24.74
2023-07-19T18:48:09.150Z,24.65
2023-07-19T18:50:40.751Z,24.60
2023-07-19T18:53:11.730Z,24.33
2023-07-19T18:55:49.832Z,24.14
2023-07-19T18:58:22.404Z,23.94
2023-07-19T19:00:58.711Z,23.88
2023-07-19T19:03:31.365Z,23.79
2023-07-19T19:06:00.238Z,23.71
2023-07-19T19:08:35.198Z,23.65
2023-07-19T19:11:04.995Z,23.45
2023-07-19T19:13:36.139Z,23.43
2023-07-19T19:16:07.811Z,23.30
2023-07-19T19:18:38.203Z,23.21
2023-07-19T19:21:10.414Z,23.16
2023-07-19T19:23:42.170Z,23.08
2023-07-19T19:26:15.847Z,22.92
2023-07-19T19:28:45.668Z,22.93
2023-07-19T19:31:24.850Z,23.07
2023-07-19T19:33:53.409Z,22.90
2023-07-19T19:36:24.390Z,22.82
2023-07-19T19:38:55.924Z,22.74
2023-07-19T19:41:28.998Z,22.63
2023-07-19T19:43:58.778Z,22.43
2023-07-19T19:46:31.923Z,22.30
2023-07-19T19:49:02.874Z,22.25
2023-07-19T19:51:35.810Z,22.11
2023-07-19T19:54:11.317Z,21.96
2023-07-19T19:56:51.497Z,21.93
2023-07-19T19:59:22.208Z,21.89
2023-07-19T20:01:51.880Z,21.81
2023-07-19T20:04:44.649Z,21.80
2023-07-19T20:07:15.894Z,21.80
2023-07-19T20:09:59.550Z,21.78
2023-07-19T20:12:30.639Z,21.71
2023-07-19T20:14:58.717Z,21.63
2023-07-19T20:17:36.791Z,21.61
2023-07-19T20:20:09.285Z,21.74
2023-07-19T20:22:50.501Z,21.74
2023-07-19T20:25:29.701Z,21.75
2023-07-19T20:28:21.168Z,21.77
2023-07-19T20:31:05.867Z,21.78
2023-07-19T20:33:43.083Z,21.79
2023-07-19T20:36:45.538Z,21.80
2023-07-19T20:39:50.422Z,21.85
2023-07-19T20:41:53.368Z,21.81
2023-07-19T20:44:28.555Z,21.78
2023-07-19T20:46:57.220Z,21.75
2023-07-19T20:49:27.110Z,21.73
2023-07-19T20:51:55.896Z,21.78
2023-07-19T20:54:24.175Z,21.72
2023-07-19T20:56:52.390Z,21.71
2023-07-19T20:59:22.041Z,21.69
2023-07-19T21:01:50.389Z,21.59
2023-07-19T21:04:20.396Z,21.57
2023-07-19T21:06:48.820Z,21.57
2023-07-19T21:09:17.175Z,21.58
2023-07-19T21:11:45.833Z,21.57
2023-07-19T21:14:14.032Z,21.57
2023-07-19T21:16:43.644Z,21.60
2023-07-19T21:19:11.672Z,21.54
2023-07-19T21:21:39.811Z,21.43
2023-07-19T21:24:13.794Z,21.40
2023-07-19T21:26:51.066Z,21.27
2023-07-19T21:29:22.913Z,21.24
2023-07-19T21:31:57.527Z,21.14
2023-07-19T21:34:25.869Z,20.98
2023-07-19T21:36:59.371Z,20.96
2023-07-19T21:39:35.006Z,20.89
2023-07-19T21:42:04.358Z,20.76
2023-07-19T21:44:35.182Z,20.72
2023-07-19T21:47:06.264Z,20.55
2023-07-19T21:49:37.630Z,20.37
2023-07-19T21:52:22.921Z,20.28
2023-07-19T21:54:51.135Z,20.15
2023-07-19T21:57:32.253Z,20.06
2023-07-19T22:00:00.722Z,19.99
2023-07-19T22:02:34.230Z,19.94
2023-07-19T22:05:06.380Z,19.88
2023-07-19T22:07:38.918Z,19.93
2023-07-19T22:10:13.251Z,19.99
2023-07-19T22:12:41.786Z,19.99
2023-07-19T22:15:16.372Z,19.95
2023-07-19T22:17:48.090Z,19.92
2023-07-19T22:20:19.670Z,20.02
2023-07-19T22:22:48.367Z,20.04
2023-07-19T22:25:25.205Z,20.07
2023-07-19T22:28:00.758Z,20.11
2023-07-19T22:30:34.602Z,20.04
2023-07-19T22:33:09.032Z,19.98
2023-07-19T22:35:41.984Z,20.08
2023-07-19T22:38:11.577Z,20.17
2023-07-19T22:40:45.331Z,19.98
2023-07-19T22:43:15.553Z,19.98
2023-07-19T22:45:45.992Z,20.07
2023-07-19T22:48:18.322Z,20.11
2023-07-19T22:50:54.277Z,20.13
2023-07-19T22:53:35.609Z,20.17
2023-07-19T22:56:07.371Z,20.18
2023-07-19T22:58:40.085Z,20.09
2023-07-19T23:01:11.255Z,20.13
2023-07-19T23:03:40.816Z,20.15
2023-07-19T23:06:09.075Z,20.15
2023-07-19T23:08:38.594Z,20.15
2023-07-19T23:11:21.187Z,20.14
2023-07-19T23:13:53.311Z,20.14
2023-07-19T23:16:24.495Z,20.05
2023-07-19T23:19:01.814Z,20.05
2023-07-19T23:21:30.286Z,20.02
2023-07-19T23:23:58.485Z,19.92
2023-07-19T23:26:29.588Z,19.93
2023-07-19T23:29:02.770Z,19.85
2023-07-19T23:31:33.915Z,19.81
2023-07-19T23:34:03.666Z,19.79
2023-07-19T23:36:38.627Z,19.81
2023-07-19T23:39:06.909Z,19.74
2023-07-19T23:41:35.079Z,19.81
2023-07-19T23:44:04.954Z,19.72
2023-07-19T23:46:34.424Z,19.67
2023-07-19T23:49:03.929Z,19.62
2023-07-19T23:51:33.099Z,19.58
2023-07-19T23:54:02.000Z,19.55
2023-07-19T23:56:30.263Z,19.48
2023-07-19T23:58:58.473Z,19.48
